createdAt,value
2022-08-19T00:02:59.021Z,96989.75
2022-08-19T00:06:00.988Z,96985.41
2022-08-19T00:09:06.043Z,96978.88
2022-08-19T00:12:08.230Z,96989.53
2022-08-19T00:15:13.726Z,96988.50
2022-08-19T00:18:15.742Z,96989.72
2022-08-19T00:21:17.940Z,96981.44
2022-08-19T00:24:21.034Z,96978.97
2022-08-19T00:27:25.102Z,96977.31
2022-08-19T00:30:31.557Z,96968.59
2022-08-19T00:33:34.489Z,96973.34
2022-08-19T00:36:36.553Z,96968.19
2022-08-19T00:39:38.827Z,96968.00
2022-08-19T00:42:42.190Z,96971.09
2022-08-19T00:45:44.916Z,96977.66
2022-08-19T00:48:46.882Z,96964.19
2022-08-19T00:51:53.264Z,96971.28
2022-08-19T00:54:58.352Z,96965.81
2022-08-19T00:58:11.538Z,96950.53
2022-08-19T01:02:09.762Z,96980.06
2022-08-19T01:05:19.724Z,96972.69
2022-08-19T01:08:22.360Z,96976.13
2022-08-19T01:11:24.519Z,96968.47
2022-08-19T01:14:27.188Z,96985.06
2022-08-19T01:17:29.285Z,96987.56
2022-08-19T01:20:31.689Z,96991.63
2022-08-19T01:23:45.760Z,96992.81
2022-08-19T01:26:48.725Z,96988.06
2022-08-19T01:29:51.044Z,96985.63
2022-08-19T01:32:54.498Z,96989.69
2022-08-19T01:36:08.550Z,96985.56
2022-08-19T01:39:13.900Z,96996.81
2022-08-19T01:42:15.928Z,97000.13
2022-08-19T01:45:20.264Z,96994.97
2022-08-19T01:48:23.141Z,96986.25
2022-08-19T01:51:25.414Z,96982.94
2022-08-19T01:54:28.091Z,96988.84
2022-08-19T01:57:30.389Z,97012.25
2022-08-19T02:00:33.757Z,97014.72
2022-08-19T02:03:35.918Z,97014.28
2022-08-19T02:06:38.577Z,97022.47
2022-08-19T02:09:40.661Z,97021.25
2022-08-19T02:12:42.978Z,97014.00
2022-08-19T02:15:45.632Z,97003.50
2022-08-19T02:18:51.644Z,97011.25
2022-08-19T02:21:53.724Z,97018.78
2022-08-19T02:24:56.722Z,97033.31
2022-08-19T02:27:58.845Z,97023.88
2022-08-19T02:31:01.960Z,97020.56
2022-08-19T02:34:04.104Z,97005.06
2022-08-19T02:37:06.569Z,97006.28
2022-08-19T02:40:12.515Z,96992.38
2022-08-19T02:43:14.870Z,96993.25
2022-08-19T02:46:22.248Z,96999.25
2022-08-19T02:49:24.253Z,96998.25
2022-08-19T02:52:26.658Z,96998.53
2022-08-19T02:55:28.803Z,96985.78
2022-08-19T02:58:30.872Z,96987.91
2022-08-19T03:01:58.195Z,96986.31
2022-08-19T03:05:00.330Z,96983.06
2022-08-19T03:08:02.728Z,96977.56
2022-08-19T03:11:05.770Z,96980.47
2022-08-19T03:14:09.689Z,96977.16
2022-08-19T03:17:11.722Z,96988.66
2022-08-19T03:20:14.099Z,96978.44
2022-08-19T03:23:17.755Z,96996.91
2022-08-19T03:26:19.838Z,97008.03
2022-08-19T03:29:30.747Z,97004.09
2022-08-19T03:32:33.838Z,97011.38
2022-08-19T03:35:40.046Z,97012.66
2022-08-19T03:38:45.615Z,97027.78
2022-08-19T03:42:38.607Z,97032.78
2022-08-19T03:45:13.502Z,97039.31
2022-08-19T03:48:17.944Z,97048.06
2022-08-19T03:51:30.813Z,97044.56
2022-08-19T03:54:33.219Z,97052.13
2022-08-19T03:57:35.783Z,97053.56
2022-08-19T04:00:38.027Z,97054.22
2022-08-19T04:03:41.502Z,97060.22
2022-08-19T04:06:44.634Z,97069.88
2022-08-19T04:09:46.740Z,97062.81
2022-08-19T04:12:48.775Z,97064.84
2022-08-19T04:15:51.209Z,97079.66
2022-08-19T04:18:53.328Z,97071.66
2022-08-19T04:21:55.688Z,97078.72
2022-08-19T04:24:57.703Z,97073.66
2022-08-19T04:27:59.684Z,97076.84
2022-08-19T04:31:01.764Z,97081.19
2022-08-19T04:34:09.384Z,97088.72
2022-08-19T04:37:13.882Z,97084.81
2022-08-19T04:40:34.600Z,97091.47
2022-08-19T04:43:39.357Z,97089.97
2022-08-19T04:46:51.033Z,97094.63
2022-08-19T04:49:53.815Z,97101.03
2022-08-19T04:52:57.430Z,97109.25
2022-08-19T04:56:04.963Z,97107.47
2022-08-19T04:59:07.098Z,97107.72
2022-08-19T05:02:10.362Z,97124.63
2022-08-19T05:05:13.648Z,97129.38
2022-08-19T05:08:30.919Z,97136.38
2022-08-19T05:11:40.170Z,97140.72
2022-08-19T05:14:42.514Z,97139.06
2022-08-19T05:18:04.512Z,97143.03
2022-08-19T05:21:27.748Z,97145.06
2022-08-19T05:24:30.645Z,97149.84
2022-08-19T05:27:33.994Z,97158.84
2022-08-19T05:30:46.810Z,97152.34
2022-08-19T05:33:51.220Z,97164.56
2022-08-19T05:36:59.299Z,97184.53
2022-08-19T05:40:01.839Z,97195.13
2022-08-19T05:43:06.388Z,97205.56
2022-08-19T05:46:09.850Z,97204.25
2022-08-19T05:49:11.911Z,97214.53
2022-08-19T05:52:19.018Z,97218.22
2022-08-19T05:55:24.882Z,97224.25
2022-08-19T05:58:28.123Z,97220.66
2022-08-19T06:01:30.466Z,97218.03
2022-08-19T06:04:53.080Z,97239.94
2022-08-19T06:07:55.508Z,97249.28
2022-08-19T06:10:57.905Z,97238.97
2022-08-19T06:14:04.288Z,97232.16
2022-08-19T06:17:07.415Z,97223.06
2022-08-19T06:20:13.101Z,97220.44
2022-08-19T06:23:16.251Z,97221.88
2022-08-19T06:26:20.505Z,97232.59
2022-08-19T06:29:26.136Z,97245.22
2022-08-19T06:32:28.312Z,97253.72
2022-08-19T06:35:30.801Z,97264.66
2022-08-19T06:38:34.642Z,97262.38
2022-08-19T06:41:47.125Z,97253.50
2022-08-19T06:44:53.296Z,97249.75
2022-08-19T06:47:57.123Z,97246.22
2022-08-19T06:50:59.282Z,97242.25
2022-08-19T06:54:03.291Z,97247.03
2022-08-19T06:57:05.450Z,97241.53
2022-08-19T07:00:13.039Z,97222.38
2022-08-19T07:03:15.451Z,97215.50
2022-08-19T07:06:43.690Z,97197.22
2022-08-19T07:09:44.446Z,97197.91
2022-08-19T07:12:56.468Z,97205.78
2022-08-19T07:15:58.511Z,97217.53
2022-08-19T07:19:00.627Z,97214.31
2022-08-19T07:22:19.204Z,97223.06
2022-08-19T07:25:32.297Z,97215.44
2022-08-19T07:28:35.379Z,97205.03
2022-08-19T07:31:38.698Z,97193.91
2022-08-19T07:34:40.848Z,97183.50
2022-08-19T07:37:45.618Z,97156.66
2022-08-19T07:40:47.689Z,97132.00
2022-08-19T07:43:50.520Z,97147.16
2022-08-19T07:46:56.921Z,97150.50
2022-08-19T07:49:58.942Z,97135.72
2022-08-19T07:53:01.033Z,97154.38
2022-08-19T07:56:05.421Z,97148.47
2022-08-19T07:59:07.558Z,97168.53
2022-08-19T08:02:10.240Z,97172.38
2022-08-19T08:05:32.496Z,97164.81
2022-08-19T08:08:54.440Z,97185.78
2022-08-19T08:12:33.194Z,97186.09
2022-08-19T08:15:29.400Z,97185.66
2022-08-19T08:18:32.396Z,97198.00
2022-08-19T08:21:35.352Z,97187.81
2022-08-19T08:24:37.366Z,97182.13
2022-08-19T08:27:44.450Z,97183.63
2022-08-19T08:30:50.765Z,97182.31
2022-08-19T08:33:53.070Z,97188.84
2022-08-19T08:36:55.108Z,97200.81
2022-08-19T08:39:57.350Z,97219.28
2022-08-19T08:43:23.259Z,97221.41
2022-08-19T08:46:39.939Z,97229.47
2022-08-19T08:49:55.001Z,97225.81
2022-08-19T08:52:58.545Z,97220.38
2022-08-19T08:56:04.116Z,97224.34
2022-08-19T08:59:21.396Z,97224.84
2022-08-19T09:02:23.665Z,97210.97
2022-08-19T09:05:48.331Z,97189.31
2022-08-19T09:09:00.730Z,97193.13
2022-08-19T09:12:35.520Z,97187.78
2022-08-19T09:15:46.060Z,97177.81
2022-08-19T09:18:55.967Z,97168.44
2022-08-19T09:21:58.021Z,97172.25
2022-08-19T09:25:00.937Z,97158.44
2022-08-19T09:28:15.180Z,60274.75
2022-08-19T09:31:28.121Z,60274.75
2022-08-19T09:34:30.615Z,60274.75
2022-08-19T09:37:40.439Z,86414.81
2022-08-19T09:40:42.682Z,60274.75
2022-08-19T09:43:53.383Z,60274.75
2022-08-19T09:46:55.524Z,60274.75
2022-08-19T09:49:58.694Z,60274.75
2022-08-19T09:53:00.790Z,60274.75
2022-08-19T09:56:04.293Z,60274.75
2022-08-19T09:59:06.457Z,60274.75
2022-08-19T10:02:10.677Z,60274.75
2022-08-19T10:05:31.416Z,60274.75
2022-08-19T10:08:37.530Z,60274.75
2022-08-19T10:11:54.625Z,60274.75
2022-08-19T10:14:57.391Z,60274.75
2022-08-19T10:18:00.424Z,60274.75
2022-08-19T10:21:11.662Z,60274.75
2022-08-19T10:24:14.002Z,60274.75
2022-08-19T10:27:16.410Z,60274.75
2022-08-19T10:30:20.205Z,60274.75
2022-08-19T10:33:38.935Z,60274.75
2022-08-19T10:36:52.278Z,60274.75
2022-08-19T10:39:58.745Z,60274.75
2022-08-19T10:43:00.783Z,60274.75
2022-08-19T10:46:02.855Z,60274.75
2022-08-19T10:49:06.675Z,60274.75
2022-08-19T10:52:32.275Z,60274.75
2022-08-19T10:55:53.205Z,60274.75
2022-08-19T10:58:55.413Z,60274.75
2022-08-19T11:02:02.332Z,60274.75
2022-08-19T11:05:05.150Z,60274.75
2022-08-19T11:08:23.845Z,60274.75
2022-08-19T11:11:26.241Z,60274.75
2022-08-19T11:14:32.205Z,60274.75
2022-08-19T11:17:37.183Z,60274.75
2022-08-19T11:20:39.331Z,60274.75
2022-08-19T11:23:42.075Z,60274.75
2022-08-19T11:26:46.121Z,60274.75
2022-08-19T11:29:48.620Z,60274.75
2022-08-19T11:32:50.925Z,60274.75
2022-08-19T11:35:54.468Z,60274.75
2022-08-19T11:38:56.549Z,60274.75
2022-08-19T11:42:25.318Z,60274.75
2022-08-19T11:45:29.144Z,60274.75
2022-08-19T11:48:31.283Z,60274.75
2022-08-19T11:51:34.867Z,60274.75
2022-08-19T11:54:37.075Z,60274.75
2022-08-19T11:57:39.333Z,60274.75
2022-08-19T12:00:42.305Z,60274.75
2022-08-19T12:03:46.934Z,60274.75
2022-08-19T12:06:49.319Z,60274.75
2022-08-19T12:09:52.037Z,60274.75
2022-08-19T12:12:58.870Z,60274.75
2022-08-19T12:16:02.110Z,60274.75
2022-08-19T12:19:06.159Z,60274.75
2022-08-19T12:22:08.797Z,60274.75
2022-08-19T12:25:13.077Z,60274.75
2022-08-19T12:28:15.217Z,60274.75
2022-08-19T12:31:17.532Z,60274.75
2022-08-19T12:34:21.304Z,60274.75
2022-08-19T12:37:24.030Z,60274.75
2022-08-19T12:40:26.650Z,60274.75
2022-08-19T12:43:31.416Z,60274.75
2022-08-19T12:46:33.885Z,60274.75
2022-08-19T12:49:54.325Z,60274.75
2022-08-19T12:52:58.349Z,60274.75
2022-08-19T12:56:01.142Z,60274.75
2022-08-19T12:59:04.588Z,60274.75
2022-08-19T13:02:08.587Z,60274.75
2022-08-19T13:05:13.065Z,60274.75
2022-08-19T13:08:15.431Z,60274.75
2022-08-19T13:11:21.499Z,60274.75
2022-08-19T13:14:23.627Z,60274.75
2022-08-19T13:17:25.773Z,60274.75
2022-08-19T13:20:28.662Z,60274.75
2022-08-19T13:23:31.403Z,60274.75
2022-08-19T13:26:33.752Z,60274.75
2022-08-19T13:29:54.329Z,60274.75
2022-08-19T13:33:17.555Z,60274.75
2022-08-19T13:36:19.706Z,60274.75
2022-08-19T13:39:24.157Z,60274.75
2022-08-19T13:42:27.102Z,60274.75
2022-08-19T13:45:31.214Z,60274.75
2022-08-19T13:48:33.337Z,60274.75
2022-08-19T13:51:36.025Z,60274.75
2022-08-19T13:54:38.059Z,60274.75
2022-08-19T13:57:40.432Z,60274.75
2022-08-19T14:00:47.186Z,60274.75
2022-08-19T14:03:50.353Z,60274.75
2022-08-19T14:06:52.351Z,60274.75
2022-08-19T14:09:54.407Z,60274.75
2022-08-19T14:12:59.510Z,60274.75
2022-08-19T14:16:01.743Z,60274.75
2022-08-19T14:19:04.136Z,60274.75
2022-08-19T14:22:06.675Z,60274.75
2022-08-19T14:25:11.752Z,60274.75
2022-08-19T14:28:13.945Z,60274.75
2022-08-19T14:31:20.147Z,60274.75
2022-08-19T14:34:23.836Z,60274.75
2022-08-19T14:37:26.658Z,60274.75
2022-08-19T14:40:31.561Z,60274.75
2022-08-19T14:43:33.573Z,60274.75
2022-08-19T14:46:35.564Z,60274.75
2022-08-19T14:49:44.770Z,60274.75
2022-08-19T14:52:51.988Z,60274.75
2022-08-19T14:55:54.004Z,60274.75
2022-08-19T14:58:58.127Z,60274.75
2022-08-19T15:02:00.833Z,60274.75
2022-08-19T15:05:22.939Z,60274.75
2022-08-19T15:08:26.118Z,60274.75
2022-08-19T15:11:29.115Z,60274.75
2022-08-19T15:14:35.808Z,60274.75
2022-08-19T15:17:45.410Z,60274.75
2022-08-19T15:20:50.072Z,60274.75
2022-08-19T15:23:52.940Z,60274.75
2022-08-19T15:26:56.974Z,60274.75
2022-08-19T15:30:01.496Z,60274.75
2022-08-19T15:33:04.160Z,60274.75
2022-08-19T15:36:07.316Z,60274.75
2022-08-19T15:39:10.703Z,60274.75
2022-08-19T15:42:12.872Z,60274.75
2022-08-19T15:45:21.933Z,60274.75
2022-08-19T15:48:24.181Z,60274.75
2022-08-19T15:51:28.156Z,60274.75
2022-08-19T15:54:30.146Z,60274.75
2022-08-19T15:57:32.198Z,60274.75
2022-08-19T16:00:52.937Z,60274.75
2022-08-19T16:04:16.200Z,60274.75
2022-08-19T16:07:22.953Z,60274.75
2022-08-19T16:10:27.984Z,60274.75
2022-08-19T16:13:32.995Z,60274.75
2022-08-19T16:16:36.019Z,60274.75
2022-08-19T16:19:38.853Z,60274.75
2022-08-19T16:22:41.107Z,60274.75
2022-08-19T16:25:43.153Z,60274.75
2022-08-19T16:28:46.735Z,60274.75
2022-08-19T16:31:50.840Z,60274.75
2022-08-19T16:34:53.186Z,60274.75
2022-08-19T16:37:55.449Z,60274.75
2022-08-19T16:40:59.482Z,60274.75
2022-08-19T16:44:01.540Z,60274.75
2022-08-19T16:47:04.096Z,60274.75
2022-08-19T16:50:07.717Z,60274.75
2022-08-19T16:53:09.974Z,60274.75
2022-08-19T16:56:12.721Z,60274.75
2022-08-19T16:59:15.489Z,60274.75
2022-08-19T18:02:10.085Z,60274.75
2022-08-19T18:05:13.442Z,60274.75
2022-08-19T18:08:15.508Z,60274.75
2022-08-19T18:11:17.682Z,60274.75
2022-08-19T18:14:19.898Z,60274.75
2022-08-19T18:17:23.596Z,60274.75
2022-08-19T18:20:25.642Z,60274.75
2022-08-19T18:23:43.910Z,60274.75
2022-08-19T18:26:48.220Z,60274.75
2022-08-19T18:29:50.435Z,60274.75
2022-08-19T18:32:54.074Z,60274.75
2022-08-19T18:35:56.061Z,60274.75
2022-08-19T18:39:16.751Z,60274.75
2022-08-19T18:42:37.429Z,60274.75
2022-08-19T18:45:59.312Z,60274.75
2022-08-19T18:49:05.274Z,60274.75
2022-08-19T18:52:07.710Z,60274.75
2022-08-19T18:55:10.133Z,60274.75
2022-08-19T18:58:18.649Z,60274.75
2022-08-19T19:01:27.596Z,60274.75
2022-08-19T19:04:34.351Z,60274.75
2022-08-19T19:07:36.407Z,60274.75
2022-08-19T19:10:39.056Z,60274.75
2022-08-19T19:13:41.327Z,60274.75
2022-08-19T19:16:46.047Z,60274.75
2022-08-19T19:19:49.235Z,60274.75
2022-08-19T19:22:51.283Z,60274.75
2022-08-19T19:25:58.641Z,60274.75
2022-08-19T19:29:01.081Z,60274.75
2022-08-19T19:32:05.100Z,60274.75
2022-08-19T19:35:10.837Z,60274.75
2022-08-19T19:38:12.981Z,60274.75
2022-08-19T19:41:17.825Z,60274.75
2022-08-19T19:44:30.858Z,60274.75
2022-08-19T19:47:34.995Z,60274.75
2022-08-19T19:50:37.151Z,60274.75
2022-08-19T19:53:40.401Z,60274.75
2022-08-19T19:56:45.571Z,60274.75
2022-08-19T19:59:51.659Z,60274.75
2022-08-19T20:02:56.168Z,60274.75
2022-08-19T20:05:59.584Z,60274.75
2022-08-19T20:09:19.452Z,60274.75
2022-08-19T20:12:21.986Z,60274.75
2022-08-19T20:15:24.387Z,60274.75
2022-08-19T20:18:26.544Z,60274.75
2022-08-19T20:21:32.584Z,60274.75
2022-08-19T20:24:36.485Z,60274.75
2022-08-19T20:27:40.320Z,60274.75
2022-08-19T20:30:46.600Z,60274.75
2022-08-19T20:33:50.890Z,60274.75
2022-08-19T20:36:53.043Z,60274.75
2022-08-19T20:39:55.207Z,60274.75
2022-08-19T20:42:57.757Z,60274.75
2022-08-19T20:46:00.156Z,60274.75
2022-08-19T20:49:02.230Z,60274.75
2022-08-19T20:52:08.086Z,60274.75
2022-08-19T20:55:12.170Z,60274.75
2022-08-19T20:58:14.359Z,60274.75
2022-08-19T21:01:16.607Z,60274.75
2022-08-19T21:04:20.322Z,60274.75
2022-08-19T21:07:22.896Z,60274.75
2022-08-19T21:10:32.327Z,60274.75
2022-08-19T21:13:34.741Z,60274.75
2022-08-19T21:16:36.744Z,60274.75
2022-08-19T21:19:38.953Z,60274.75
2022-08-19T21:22:41.110Z,60274.75
2022-08-19T21:25:43.612Z,60274.75
2022-08-19T21:28:56.701Z,60274.75
2022-08-19T21:31:58.761Z,60274.75
2022-08-19T21:35:02.357Z,60274.75
2022-08-19T21:38:04.462Z,60274.75
2022-08-19T21:41:06.826Z,60274.75
2022-08-19T21:44:08.910Z,60274.75
2022-08-19T21:47:10.996Z,60274.75
2022-08-19T21:50:13.222Z,60274.75
2022-08-19T21:53:17.859Z,60274.75
2022-08-19T21:56:20.301Z,60274.75
2022-08-19T21:59:22.389Z,60274.75
2022-08-19T22:02:24.730Z,60274.75
2022-08-19T22:05:27.567Z,60274.75
2022-08-19T22:08:30.000Z,60274.75
2022-08-19T22:11:32.087Z,60274.75
2022-08-19T22:14:34.137Z,60274.75
2022-08-19T22:17:36.669Z,60274.75
2022-08-19T22:20:38.804Z,60274.75
2022-08-19T22:23:47.824Z,60274.75
2022-08-19T22:26:50.187Z,60274.75
2022-08-19T22:29:52.577Z,60274.75
2022-08-19T22:33:01.557Z,60274.75
2022-08-19T22:36:07.715Z,60274.75
2022-08-19T22:39:10.425Z,60274.75
2022-08-19T22:42:12.623Z,60274.75
2022-08-19T22:45:17.398Z,60274.75
2022-08-19T22:48:23.203Z,60274.75
2022-08-19T22:51:44.101Z,60274.75
2022-08-19T22:54:59.297Z,60274.75
2022-08-19T22:58:01.383Z,60274.75
2022-08-19T23:01:04.658Z,60274.75
2022-08-19T23:04:06.888Z,60274.75
2022-08-19T23:07:09.552Z,60274.75
2022-08-19T23:10:13.478Z,60274.75
2022-08-19T23:13:31.893Z,60274.75
2022-08-19T23:16:35.279Z,60274.75
2022-08-19T23:19:38.686Z,60274.75
2022-08-19T23:22:49.855Z,60274.75
2022-08-19T23:25:56.331Z,60274.75
2022-08-19T23:29:17.085Z,60274.75
2022-08-19T23:32:20.292Z,60274.75
2022-08-19T23:35:23.424Z,60274.75
2022-08-19T23:38:28.223Z,60274.75
2022-08-19T23:41:31.191Z,60274.75
2022-08-19T23:44:33.495Z,60274.75
2022-08-19T23:47:36.873Z,60274.75
2022-08-19T23:50:44.279Z,60274.75
2022-08-19T23:53:46.315Z,60274.75
2022-08-19T23:56:48.367Z,60274.75
2022-08-19T23:59:50.598Z,60274.75
